createdAt,value
2023-08-19T00:03:08.420Z,96352.59
2023-08-19T00:07:21.472Z,96349.81
2023-08-19T00:11:34.448Z,96341.19
2023-08-19T00:15:47.419Z,96332.25
2023-08-19T00:19:59.955Z,96337.88
2023-08-19T00:24:12.566Z,96330.75
2023-08-19T00:28:25.038Z,96331.97
2023-08-19T00:32:37.556Z,96335.00
2023-08-19T00:36:50.678Z,96343.13
2023-08-19T00:41:05.088Z,96339.06
2023-08-19T00:45:17.568Z,96335.25
2023-08-19T00:49:33.678Z,96340.81
2023-08-19T00:53:47.131Z,96336.19
2023-08-19T00:58:03.280Z,96352.41
2023-08-19T01:02:15.981Z,96351.34
2023-08-19T01:06:47.417Z,96338.13
2023-08-19T01:11:10.422Z,96330.75
2023-08-19T01:15:28.194Z,96326.19
2023-08-19T01:19:43.636Z,96331.31
2023-08-19T01:24:00.703Z,96318.09
2023-08-19T01:28:13.283Z,96317.78
2023-08-19T01:32:26.981Z,96317.03
2023-08-19T01:36:46.798Z,96312.41
2023-08-19T01:41:00.179Z,96316.16
2023-08-19T01:45:13.552Z,96319.19
2023-08-19T01:49:28.623Z,96316.41
2023-08-19T01:53:41.403Z,96319.41
2023-08-19T01:57:54.367Z,96324.69
2023-08-19T02:02:06.877Z,96318.88
2023-08-19T02:06:19.787Z,96322.38
2023-08-19T02:10:34.627Z,96315.72
2023-08-19T02:14:47.370Z,96318.88
2023-08-19T02:19:01.370Z,96319.59
2023-08-19T02:23:13.857Z,96321.59
2023-08-19T02:27:27.724Z,96323.81
2023-08-19T02:31:40.859Z,96327.09
2023-08-19T02:35:53.861Z,96335.16
2023-08-19T02:40:08.178Z,96333.59
2023-08-19T02:44:20.710Z,96328.84
2023-08-19T02:48:33.448Z,96327.22
2023-08-19T02:52:45.964Z,96332.88
2023-08-19T02:56:58.477Z,96338.56
2023-08-19T03:01:14.366Z,96337.78
2023-08-19T03:05:26.961Z,96328.66
2023-08-19T03:09:39.482Z,96328.34
2023-08-19T03:13:52.069Z,96319.38
2023-08-19T03:18:04.988Z,96329.81
2023-08-19T03:22:17.473Z,96322.66
2023-08-19T03:26:30.392Z,96321.38
2023-08-19T03:30:42.853Z,96320.91
2023-08-19T03:34:55.407Z,96324.66
2023-08-19T03:39:08.338Z,96337.78
2023-08-19T03:43:20.894Z,96334.66
2023-08-19T03:47:33.759Z,96336.94
2023-08-19T03:51:46.994Z,96351.63
2023-08-19T03:55:59.525Z,96344.00
2023-08-19T04:00:13.029Z,96348.50
2023-08-19T04:04:26.163Z,96341.38
2023-08-19T04:08:38.784Z,96348.47
2023-08-19T04:12:51.277Z,96357.25
2023-08-19T04:17:03.976Z,96350.41
2023-08-19T04:21:16.479Z,96356.28
2023-08-19T04:25:28.965Z,96352.84
2023-08-19T04:29:41.482Z,96359.16
2023-08-19T04:33:54.003Z,96360.34
2023-08-19T04:38:06.542Z,96349.81
2023-08-19T04:42:19.634Z,96363.66
2023-08-19T04:46:33.031Z,96361.91
2023-08-19T04:50:45.925Z,96374.34
2023-08-19T04:54:58.416Z,96368.09
2023-08-19T04:59:10.907Z,96374.25
2023-08-19T05:03:23.514Z,96380.91
2023-08-19T05:07:36.003Z,96378.25
2023-08-19T05:11:48.595Z,96385.16
2023-08-19T05:16:01.893Z,96388.34
2023-08-19T05:20:14.881Z,96388.69
2023-08-19T05:24:27.369Z,96399.66
2023-08-19T05:28:40.431Z,96393.66
2023-08-19T05:32:52.935Z,96383.38
2023-08-19T05:37:08.578Z,96385.50
2023-08-19T05:41:21.137Z,96384.75
2023-08-19T05:45:35.626Z,96383.53
2023-08-19T05:49:48.229Z,96398.09
2023-08-19T05:54:02.210Z,96393.81
2023-08-19T05:58:14.725Z,96384.69
2023-08-19T06:02:27.594Z,96378.56
2023-08-19T06:06:40.137Z,96385.41
2023-08-19T06:11:08.859Z,96384.38
2023-08-19T06:15:21.433Z,96393.53
2023-08-19T06:19:33.916Z,96399.25
2023-08-19T06:23:46.402Z,96396.63
2023-08-19T06:27:59.191Z,96388.41
2023-08-19T06:32:13.080Z,96380.91
2023-08-19T06:36:30.392Z,96400.41
2023-08-19T06:41:12.133Z,96397.47
2023-08-19T06:45:25.262Z,96403.66
2023-08-19T06:49:39.458Z,96414.72
2023-08-19T06:53:52.641Z,96411.75
2023-08-19T06:58:10.339Z,96418.72
2023-08-19T07:02:24.013Z,96423.28
2023-08-19T07:06:38.973Z,96424.38
2023-08-19T07:10:51.895Z,96427.09
2023-08-19T07:15:07.002Z,96431.13
2023-08-19T07:19:28.994Z,96436.81
2023-08-19T07:23:48.918Z,96422.81
2023-08-19T07:28:06.735Z,96437.13
2023-08-19T07:32:21.241Z,96417.09
2023-08-19T07:36:33.752Z,96436.63
2023-08-19T07:40:46.296Z,96440.47
2023-08-19T07:44:58.786Z,96437.56
2023-08-19T07:49:11.291Z,96442.22
2023-08-19T07:53:24.116Z,96443.41
2023-08-19T07:57:36.625Z,96449.47
2023-08-19T08:01:49.195Z,96454.19
2023-08-19T08:06:01.831Z,96457.53
2023-08-19T08:10:14.379Z,96459.41
2023-08-19T08:14:26.921Z,96468.84
2023-08-19T08:18:39.960Z,96457.44
2023-08-19T08:22:52.459Z,96455.88
2023-08-19T08:27:05.095Z,96443.94
2023-08-19T08:31:18.341Z,96456.22
2023-08-19T08:35:30.898Z,96447.03
2023-08-19T08:39:44.081Z,96446.44
2023-08-19T08:43:57.942Z,96449.69
2023-08-19T08:48:15.960Z,96443.16
2023-08-19T08:52:29.617Z,96452.63
2023-08-19T08:56:42.773Z,96454.16
2023-08-19T09:00:56.829Z,96455.44
2023-08-19T09:05:10.769Z,96463.88
2023-08-19T09:09:27.443Z,96467.81
2023-08-19T09:13:42.698Z,96457.84
2023-08-19T09:17:57.537Z,96465.06
2023-08-19T09:22:19.493Z,96457.59
2023-08-19T09:26:32.615Z,96458.38
2023-08-19T09:30:46.093Z,96445.22
2023-08-19T09:35:08.174Z,96454.56
2023-08-19T09:39:22.328Z,96459.31
2023-08-19T09:43:41.820Z,96452.28
2023-08-19T09:47:56.216Z,96458.00
2023-08-19T09:52:21.457Z,96455.81
2023-08-19T09:56:34.973Z,96441.31
2023-08-19T10:00:48.839Z,96441.81
2023-08-19T10:05:02.681Z,96445.88
2023-08-19T10:09:21.852Z,96445.56
2023-08-19T10:13:36.316Z,96449.31
2023-08-19T10:17:55.108Z,96456.25
2023-08-19T10:22:11.900Z,96456.00
2023-08-19T10:26:25.228Z,96456.69
2023-08-19T10:30:38.534Z,96456.84
2023-08-19T10:34:52.126Z,96466.59
2023-08-19T10:39:09.500Z,96457.34
2023-08-19T10:43:22.553Z,96455.63
2023-08-19T10:47:43.530Z,96457.25
2023-08-19T10:52:06.642Z,96447.16
2023-08-19T10:56:22.226Z,96451.69
2023-08-19T11:00:37.108Z,96428.72
2023-08-19T11:04:52.436Z,96455.63
2023-08-19T11:09:06.609Z,96458.28
2023-08-19T11:13:19.830Z,96455.63
2023-08-19T11:17:34.657Z,96459.94
2023-08-19T11:21:48.816Z,96459.50
2023-08-19T11:26:02.512Z,96444.47
2023-08-19T11:30:16.678Z,96447.59
2023-08-19T11:34:34.142Z,96436.97
2023-08-19T11:38:48.520Z,96436.03
2023-08-19T11:43:09.425Z,96443.84
2023-08-19T11:47:22.591Z,96437.69
2023-08-19T11:51:39.176Z,96440.50
2023-08-19T11:55:58.099Z,96443.28
2023-08-19T12:00:17.441Z,96443.75
2023-08-19T12:04:30.644Z,96431.69
2023-08-19T12:08:46.217Z,96441.69
2023-08-19T12:13:02.600Z,96447.16
2023-08-19T12:17:16.517Z,96445.72
2023-08-19T12:21:29.690Z,96440.25
2023-08-19T12:25:57.921Z,96441.91
2023-08-19T12:30:11.628Z,96440.53
2023-08-19T12:34:24.875Z,96439.78
2023-08-19T12:38:37.983Z,96441.38
2023-08-19T12:42:56.005Z,96435.56
2023-08-19T12:47:09.420Z,96432.06
2023-08-19T12:51:22.514Z,96426.22
2023-08-19T12:55:37.080Z,96428.03
2023-08-19T12:59:51.117Z,96428.34
2023-08-19T13:04:04.463Z,96427.00
2023-08-19T13:08:17.631Z,96418.47
2023-08-19T13:12:32.307Z,96418.38
2023-08-19T13:16:45.676Z,96422.75
2023-08-19T13:20:59.331Z,96423.53
2023-08-19T13:25:12.650Z,96423.78
2023-08-19T13:29:26.005Z,96421.75
2023-08-19T13:33:39.056Z,96416.44
2023-08-19T13:37:52.161Z,96427.41
2023-08-19T13:42:06.288Z,96430.22
2023-08-19T13:46:19.429Z,96428.13
2023-08-19T13:50:32.612Z,96424.66
2023-08-19T13:54:45.731Z,96424.78
2023-08-19T13:58:59.051Z,96416.50
2023-08-19T14:03:12.353Z,96422.69
2023-08-19T14:07:25.592Z,96411.97
2023-08-19T14:11:38.904Z,96422.84
2023-08-19T14:15:52.076Z,96410.56
2023-08-19T14:20:08.178Z,96414.88
2023-08-19T14:24:21.458Z,96414.19
2023-08-19T14:28:38.385Z,96412.59
2023-08-19T14:32:51.610Z,96417.34
2023-08-19T14:37:05.404Z,96416.94
2023-08-19T14:41:19.076Z,96414.97
2023-08-19T14:45:32.180Z,96401.81
2023-08-19T14:49:45.352Z,96416.19
2023-08-19T14:54:02.848Z,96414.22
2023-08-19T14:58:15.999Z,96416.09
2023-08-19T15:02:48.187Z,96411.16
2023-08-19T15:07:04.689Z,96418.13
2023-08-19T15:11:18.195Z,96416.09
2023-08-19T15:15:31.338Z,96416.94
2023-08-19T15:19:44.404Z,96418.66
2023-08-19T15:23:57.577Z,96415.34
2023-08-19T15:28:12.404Z,96414.72
2023-08-19T15:32:26.097Z,96412.38
2023-08-19T15:36:39.213Z,96419.88
2023-08-19T15:40:52.322Z,96418.44
2023-08-19T15:45:07.577Z,96422.06
2023-08-19T15:49:20.675Z,96416.44
2023-08-19T15:53:33.827Z,96419.88
2023-08-19T15:57:46.931Z,96408.63
2023-08-19T16:02:00.110Z,96416.88
2023-08-19T16:06:13.283Z,96408.69
2023-08-19T16:10:26.531Z,96407.13
2023-08-19T16:14:39.641Z,96411.25
2023-08-19T16:18:53.503Z,96407.78
2023-08-19T16:23:06.584Z,96418.03
2023-08-19T16:27:19.720Z,96411.09
2023-08-19T16:31:32.918Z,96410.44
2023-08-19T16:35:49.098Z,96415.69
2023-08-19T16:40:02.482Z,96407.78
2023-08-19T16:44:15.616Z,96413.19
2023-08-19T16:48:29.358Z,96421.28
2023-08-19T16:52:42.480Z,96414.78
2023-08-19T16:56:55.594Z,96408.06
2023-08-19T17:01:08.806Z,96408.75
2023-08-19T17:05:22.186Z,96421.31
2023-08-19T17:09:34.704Z,96415.06
2023-08-19T17:13:48.521Z,96428.72
2023-08-19T17:18:01.153Z,96426.47
2023-08-19T17:22:14.371Z,96423.75
2023-08-19T17:26:27.541Z,96423.31
2023-08-19T17:30:40.652Z,96422.91
2023-08-19T17:34:55.306Z,96427.13
2023-08-19T17:39:09.530Z,96440.22
2023-08-19T17:43:22.638Z,96436.22
2023-08-19T17:47:35.601Z,96437.63
2023-08-19T17:51:50.914Z,96431.47
2023-08-19T17:56:04.540Z,96429.22
2023-08-19T18:00:17.542Z,96439.97
2023-08-19T18:04:30.068Z,96429.00
2023-08-19T18:08:42.581Z,96447.25
2023-08-19T18:12:55.726Z,96444.53
2023-08-19T18:17:08.661Z,96440.59
2023-08-19T18:21:21.142Z,96459.34
2023-08-19T18:25:33.657Z,96456.50
2023-08-19T18:29:46.290Z,96456.84
2023-08-19T18:33:58.793Z,96465.75
2023-08-19T18:38:11.401Z,96472.91
2023-08-19T18:42:24.631Z,96472.75
2023-08-19T18:46:37.089Z,96481.22
2023-08-19T18:50:49.987Z,96483.44
2023-08-19T18:55:02.753Z,96487.06
2023-08-19T18:59:16.164Z,96499.81
2023-08-19T19:03:32.597Z,96495.78
2023-08-19T19:07:45.334Z,96512.59
2023-08-19T19:11:58.211Z,96513.00
2023-08-19T19:16:10.751Z,96524.69
2023-08-19T19:20:25.966Z,96525.13
2023-08-19T19:24:38.468Z,96534.59
2023-08-19T19:28:51.013Z,96537.19
2023-08-19T19:33:03.622Z,96544.81
2023-08-19T19:37:16.143Z,96545.97
2023-08-19T19:41:28.701Z,96554.78
2023-08-19T19:45:42.749Z,96563.84
2023-08-19T19:49:56.923Z,96573.53
2023-08-19T19:54:09.440Z,96572.59
2023-08-19T19:58:22.040Z,96571.53
2023-08-19T20:02:35.067Z,96565.47
2023-08-19T20:06:47.563Z,96571.69
2023-08-19T20:11:00.064Z,96582.56
2023-08-19T20:15:13.708Z,96561.25
2023-08-19T20:19:27.428Z,96590.66
2023-08-19T20:23:39.901Z,96587.84
2023-08-19T20:27:52.379Z,96590.13
2023-08-19T20:32:06.398Z,96590.63
2023-08-19T20:36:18.933Z,96596.97
2023-08-19T20:40:31.434Z,96579.06
2023-08-19T20:44:43.920Z,96586.16
2023-08-19T20:48:56.451Z,96586.50
2023-08-19T20:53:08.938Z,96587.94
2023-08-19T20:57:21.439Z,96590.44
2023-08-19T21:01:34.463Z,96590.72
2023-08-19T21:05:47.886Z,96602.09
2023-08-19T21:10:01.823Z,96601.09
2023-08-19T21:14:14.460Z,96601.72
2023-08-19T21:18:27.125Z,96595.91
2023-08-19T21:22:39.634Z,96584.56
2023-08-19T21:26:52.154Z,96595.41
2023-08-19T21:31:04.688Z,96593.41
2023-08-19T21:35:17.216Z,96592.28
2023-08-19T21:39:29.770Z,96593.09
2023-08-19T21:43:42.291Z,96594.28
2023-08-19T21:47:54.873Z,96599.38
2023-08-19T21:52:07.490Z,96615.47
2023-08-19T21:56:20.295Z,96612.41
2023-08-19T22:00:33.740Z,96605.75
2023-08-19T22:04:46.323Z,96604.22
2023-08-19T22:08:59.907Z,96609.84
2023-08-19T22:13:14.504Z,96614.41
2023-08-19T22:17:27.076Z,96614.16
2023-08-19T22:21:39.751Z,96611.03
2023-08-19T22:25:52.259Z,96620.44
2023-08-19T22:30:06.220Z,96607.69
2023-08-19T22:34:18.724Z,96593.88
2023-08-19T22:38:31.239Z,96616.59
2023-08-19T22:42:43.777Z,96610.72
2023-08-19T22:46:59.456Z,96617.09
2023-08-19T22:51:11.988Z,96624.69
2023-08-19T22:55:24.497Z,96617.03
2023-08-19T22:59:38.386Z,96610.16
2023-08-19T23:03:50.923Z,96620.06
2023-08-19T23:08:03.665Z,96607.38
2023-08-19T23:12:16.680Z,96621.16
2023-08-19T23:16:29.247Z,96621.97
2023-08-19T23:20:42.330Z,96615.63
2023-08-19T23:24:54.871Z,96607.97
2023-08-19T23:29:07.387Z,96601.66
2023-08-19T23:33:19.893Z,96604.22
2023-08-19T23:37:32.817Z,96605.84
2023-08-19T23:41:46.185Z,96615.28
2023-08-19T23:45:58.711Z,96615.34
2023-08-19T23:50:12.189Z,96610.53
2023-08-19T23:54:26.032Z,96609.31
2023-08-19T23:58:39.684Z,96599.91
